Time,TemperatureF,DewpointF,PressureIn,WindDirection,WindDirectionDegrees,WindSpeedMPH,WindSpeedGustMPH,Humidity,HourlyPrecipIn,Conditions,Clouds,dailyrainin,SoftwareType,DateUTC
2013-04-25 00:03:00,53.0,50.0,30.21,SW,227,2.0,7.0,91,0.00,,,0.01,,2013-04-25 04:03:00,
2013-04-25 00:13:00,53.0,50.0,30.21,SW,227,2.0,7.0,91,0.00,,,0.01,,2013-04-25 04:13:00,
2013-04-25 00:23:00,53.0,50.0,30.21,SW,236,1.0,6.0,91,0.00,,,0.01,,2013-04-25 04:23:00,
2013-04-25 00:33:00,53.0,50.0,30.21,WNW,296,2.0,7.0,91,0.00,,,0.01,,2013-04-25 04:33:00,
2013-04-25 00:43:00,53.0,50.0,30.21,WNW,296,2.0,7.0,91,0.00,,,0.01,,2013-04-25 04:43:00,
2013-04-25 00:52:00,53.0,50.0,30.22,WNW,292,4.0,9.0,91,0.00,,,0.01,,2013-04-25 04:52:00,
2013-04-25 01:03:00,52.0,50.0,30.22,NE,37,2.0,9.0,92,0.00,,,0.01,,2013-04-25 05:03:00,
2013-04-25 01:12:00,52.0,50.0,30.22,NE,37,2.0,9.0,92,0.00,,,0.01,,2013-04-25 05:12:00,
2013-04-25 01:22:00,51.0,49.0,30.22,NW,311,3.0,11.0,92,0.00,,,0.01,,2013-04-25 05:22:00,
2013-04-25 01:32:00,52.0,49.0,30.21,NW,313,6.0,16.0,90,0.00,,,0.01,,2013-04-25 05:32:00,
2013-04-25 01:42:00,52.0,49.0,30.21,NW,313,6.0,16.0,90,0.00,,,0.01,,2013-04-25 05:42:00,
2013-04-25 01:51:00,51.0,48.0,30.21,NW,312,3.0,9.0,91,0.00,,,0.01,,2013-04-25 05:51:00,
2013-04-25 02:02:00,51.0,48.0,30.21,NW,311,2.0,6.0,91,0.00,,,0.01,,2013-04-25 06:02:00,
2013-04-25 02:12:00,51.0,48.0,30.21,NW,311,2.0,6.0,91,0.00,,,0.01,,2013-04-25 06:12:00,
2013-04-25 02:22:00,50.0,47.0,30.21,NW,326,2.0,6.0,91,0.00,,,0.01,,2013-04-25 06:22:00,
2013-04-25 02:32:00,50.0,47.0,30.21,NNW,342,4.0,14.0,90,0.00,,,0.01,,2013-04-25 06:32:00,
2013-04-25 02:42:00,50.0,47.0,30.21,NNW,342,4.0,14.0,90,0.00,,,0.01,,2013-04-25 06:42:00,
2013-04-25 02:52:00,50.0,47.0,30.22,WNW,294,5.0,18.0,89,0.00,,,0.01,,2013-04-25 06:52:00,
2013-04-25 03:02:00,49.0,46.0,30.21,NW,318,1.0,8.0,91,0.00,,,0.01,,2013-04-25 07:02:00,
2013-04-25 03:12:00,49.0,46.0,30.21,NW,318,1.0,8.0,91,0.00,,,0.01,,2013-04-25 07:12:00,
2013-04-25 03:22:00,48.0,46.0,30.20,NNE,30,3.0,6.0,92,0.00,,,0.01,,2013-04-25 07:22:00,
2013-04-25 03:32:00,48.0,46.0,30.21,NE,53,3.0,6.0,93,0.00,,,0.01,,2013-04-25 07:32:00,
2013-04-25 03:42:00,48.0,46.0,30.21,NE,53,3.0,6.0,93,0.00,,,0.01,,2013-04-25 07:42:00,
2013-04-25 03:52:00,47.0,45.0,30.20,NW,316,2.0,5.0,93,0.00,,,0.01,,2013-04-25 07:52:00,
2013-04-25 04:02:00,47.0,45.0,30.21,NNW,340,1.0,3.0,92,0.00,,,0.01,,2013-04-25 08:02:00,
2013-04-25 04:11:00,47.0,45.0,30.21,NNW,340,1.0,3.0,92,0.00,,,0.01,,2013-04-25 08:11:00,
2013-04-25 04:21:00,46.0,43.0,30.21,NW,311,1.0,3.0,89,0.00,,,0.01,,2013-04-25 08:21:00,
2013-04-25 04:32:00,45.0,43.0,30.21,WNW,285,0.0,3.0,92,0.00,,,0.01,,2013-04-25 08:32:00,
2013-04-25 04:42:00,45.0,43.0,30.21,WNW,285,0.0,3.0,92,0.00,,,0.01,,2013-04-25 08:42:00,
2013-04-25 04:51:00,44.0,42.0,30.21,North,4,0.0,2.0,93,0.00,,,0.01,,2013-04-25 08:51:00,
2013-04-25 05:01:00,43.0,41.0,30.22,NNE,29,1.0,3.0,92,0.00,,,0.01,,2013-04-25 09:01:00,
2013-04-25 05:11:00,43.0,41.0,30.22,NNE,29,1.0,3.0,92,0.00,,,0.01,,2013-04-25 09:11:00,
2013-04-25 05:21:00,42.0,39.0,30.22,NE,39,4.0,8.0,90,0.00,,,0.01,,2013-04-25 09:21:00,
2013-04-25 05:33:00,41.0,39.0,30.22,NW,311,3.0,8.0,91,0.00,,,0.01,,2013-04-25 09:33:00,
2013-04-25 05:42:00,41.0,39.0,30.22,NW,311,3.0,8.0,91,0.00,,,0.01,,2013-04-25 09:42:00,
2013-04-25 05:52:00,40.0,38.0,30.23,North,352,2.0,6.0,92,0.00,,,0.01,,2013-04-25 09:52:00,
2013-04-25 06:03:00,40.0,38.0,30.23,WNW,283,0.0,7.0,93,0.00,,,0.01,,2013-04-25 10:03:00,
2013-04-25 06:12:00,40.0,38.0,30.23,WNW,283,0.0,7.0,93,0.00,,,0.01,,2013-04-25 10:12:00,
2013-04-25 06:22:00,39.0,37.0,30.23,North,8,3.0,8.0,93,0.00,,,0.01,,2013-04-25 10:22:00,
2013-04-25 06:33:00,39.0,37.0,30.24,NE,53,2.0,5.0,94,0.00,,,0.01,,2013-04-25 10:33:00,
2013-04-25 06:42:00,39.0,37.0,30.24,NE,53,2.0,5.0,94,0.00,,,0.01,,2013-04-25 10:42:00,
2013-04-25 06:52:00,38.0,36.0,30.25,ENE,68,0.0,8.0,94,0.00,,,0.01,,2013-04-25 10:52:00,
2013-04-25 07:02:00,38.0,36.0,30.26,NNE,33,2.0,4.0,93,0.00,,,0.01,,2013-04-25 11:02:00,
2013-04-25 07:12:00,38.0,36.0,30.26,NNE,33,2.0,4.0,93,0.00,,,0.01,,2013-04-25 11:12:00,
2013-04-25 07:22:00,38.0,36.0,30.27,ENE,61,0.0,3.0,94,0.00,,,0.01,,2013-04-25 11:22:00,
2013-04-25 07:32:00,38.0,36.0,30.27,NE,37,1.0,4.0,94,0.00,,,0.01,,2013-04-25 11:32:00,
2013-04-25 07:42:00,38.0,36.0,30.27,NE,37,1.0,4.0,94,0.00,,,0.01,,2013-04-25 11:42:00,
2013-04-25 07:51:00,38.0,36.0,30.28,NNE,33,2.0,5.0,94,0.00,,,0.01,,2013-04-25 11:51:00,
2013-04-25 08:01:00,38.0,36.0,30.28,NE,37,3.0,5.0,94,0.00,,,0.01,,2013-04-25 12:01:00,
2013-04-25 08:12:00,38.0,36.0,30.28,NE,37,3.0,5.0,94,0.00,,,0.01,,2013-04-25 12:12:00,
2013-04-25 08:21:00,38.0,36.0,30.29,NE,42,3.0,4.0,93,0.00,,,0.01,,2013-04-25 12:21:00,
2013-04-25 08:32:00,38.0,36.0,30.30,NE,42,3.0,4.0,93,0.00,,,0.01,,2013-04-25 12:32:00,
2013-04-25 08:42:00,38.0,36.0,30.30,NE,42,3.0,4.0,93,0.00,,,0.01,,2013-04-25 12:42:00,
2013-04-25 08:51:00,38.0,36.0,30.30,NE,46,2.0,3.0,93,0.00,,,0.01,,2013-04-25 12:51:00,
2013-04-25 09:02:00,40.0,38.0,30.31,NE,53,3.0,4.0,92,0.00,,,0.01,,2013-04-25 13:02:00,
2013-04-25 09:11:00,40.0,38.0,30.31,NE,53,3.0,4.0,92,0.00,,,0.01,,2013-04-25 13:11:00,
2013-04-25 09:21:00,41.0,38.0,30.31,NE,43,4.0,6.0,90,0.01,,,0.02,,2013-04-25 13:21:00,
2013-04-25 09:32:00,42.0,38.0,30.32,NE,46,3.0,5.0,84,0.01,,,0.02,,2013-04-25 13:32:00,
2013-04-25 09:42:00,42.0,38.0,30.32,NE,46,3.0,5.0,84,0.01,,,0.02,,2013-04-25 13:42:00,
2013-04-25 09:52:00,44.0,39.0,30.32,ENE,75,0.0,3.0,81,0.01,,,0.02,,2013-04-25 13:52:00,
2013-04-25 10:02:00,45.0,38.0,30.32,ENE,72,0.0,0.0,75,0.01,,,0.02,,2013-04-25 14:02:00,
2013-04-25 10:11:00,45.0,38.0,30.32,ENE,72,0.0,0.0,75,0.01,,,0.02,,2013-04-25 14:11:00,
2013-04-25 10:21:00,48.0,40.0,30.32,NNE,20,0.0,1.0,74,0.00,,,0.02,,2013-04-25 14:21:00,
2013-04-25 10:32:00,49.0,36.0,30.33,WNW,287,0.0,1.0,61,0.00,,,0.02,,2013-04-25 14:32:00,
2013-04-25 10:42:00,49.0,36.0,30.33,WNW,287,0.0,1.0,61,0.00,,,0.02,,2013-04-25 14:42:00,
2013-04-25 10:51:00,50.0,34.0,30.34,WNW,285,0.0,1.0,53,0.00,,,0.02,,2013-04-25 14:51:00,
2013-04-25 11:02:00,51.0,30.0,30.35,SW,229,1.0,2.0,44,0.00,,,0.02,,2013-04-25 15:02:00,
2013-04-25 11:11:00,51.0,30.0,30.35,SW,229,1.0,2.0,44,0.00,,,0.02,,2013-04-25 15:11:00,
2013-04-25 11:21:00,53.0,24.0,30.36,WNW,297,0.0,3.0,32,0.00,,,0.02,,2013-04-25 15:21:00,
2013-04-25 11:33:00,54.0,22.0,30.36,NW,323,1.0,5.0,29,0.00,,,0.02,,2013-04-25 15:33:00,
2013-04-25 11:42:00,54.0,22.0,30.36,NW,323,1.0,5.0,29,0.00,,,0.02,,2013-04-25 15:42:00,
2013-04-25 11:53:00,56.0,21.0,30.36,NW,311,3.0,6.0,25,0.00,,,0.02,,2013-04-25 15:53:00,
2013-04-25 12:02:00,58.0,12.0,30.37,NNW,329,3.0,8.0,16,0.00,,,0.02,,2013-04-25 16:02:00,
2013-04-25 12:13:00,58.0,12.0,30.37,NNW,329,3.0,8.0,16,0.00,,,0.02,,2013-04-25 16:13:00,
2013-04-25 12:24:00,59.0,13.0,30.37,NE,43,3.0,9.0,16,0.00,,,0.02,,2013-04-25 16:24:00,
2013-04-25 12:33:00,60.0,14.0,30.37,WNW,301,3.0,8.0,16,0.00,,,0.02,,2013-04-25 16:33:00,
2013-04-25 12:43:00,60.0,14.0,30.37,WNW,301,3.0,8.0,16,0.00,,,0.02,,2013-04-25 16:43:00,
2013-04-25 12:52:00,62.0,19.0,30.37,NNE,23,0.0,6.0,19,0.00,,,0.02,,2013-04-25 16:52:00,
2013-04-25 13:02:00,61.0,20.0,30.37,NW,307,5.0,11.0,20,0.00,,,0.02,,2013-04-25 17:02:00,
2013-04-25 13:12:00,61.0,20.0,30.37,NW,307,5.0,11.0,20,0.00,,,0.02,,2013-04-25 17:12:00,
2013-04-25 13:22:00,60.0,9.0,30.37,WSW,239,9.0,12.0,13,0.00,,,0.02,,2013-04-25 17:22:00,
2013-04-25 13:32:00,60.0,14.0,30.37,WNW,295,9.0,12.0,16,0.00,,,0.02,,2013-04-25 17:32:00,
2013-04-25 13:42:00,60.0,14.0,30.37,WNW,295,9.0,12.0,16,0.00,,,0.02,,2013-04-25 17:42:00,
2013-04-25 13:53:00,62.0,15.0,30.37,NE,36,7.0,11.0,16,0.00,,,0.02,,2013-04-25 17:53:00,
2013-04-25 14:02:00,61.0,11.0,30.38,West,273,8.0,13.0,14,0.00,,,0.02,,2013-04-25 18:02:00,
2013-04-25 14:11:00,61.0,11.0,30.38,West,273,8.0,13.0,14,0.00,,,0.02,,2013-04-25 18:11:00,
2013-04-25 14:22:00,62.0,19.0,30.37,North,6,8.0,16.0,19,0.00,,,0.02,,2013-04-25 18:22:00,
2013-04-25 14:32:00,61.0,13.0,30.37,SW,236,8.0,17.0,15,0.00,,,0.02,,2013-04-25 18:32:00,
2013-04-25 14:43:00,61.0,13.0,30.37,SW,236,8.0,17.0,15,0.00,,,0.02,,2013-04-25 18:43:00,
2013-04-25 14:52:00,61.0,13.0,30.38,WSW,239,4.0,15.0,15,0.00,,,0.02,,2013-04-25 18:52:00,
2013-04-25 15:02:00,62.0,12.0,30.38,WNW,291,4.0,12.0,14,0.00,,,0.02,,2013-04-25 19:02:00,
2013-04-25 15:12:00,62.0,12.0,30.38,WNW,291,4.0,12.0,14,0.00,,,0.02,,2013-04-25 19:12:00,
2013-04-25 15:21:00,63.0,10.0,30.38,SSW,207,8.0,12.0,12,0.00,,,0.02,,2013-04-25 19:21:00,
2013-04-25 15:32:00,63.0,13.0,30.38,SW,228,9.0,18.0,14,0.00,,,0.02,,2013-04-25 19:32:00,
2013-04-25 15:42:00,63.0,13.0,30.38,SW,228,9.0,18.0,14,0.00,,,0.02,,2013-04-25 19:42:00,
2013-04-25 15:52:00,62.0,0.0,30.37,SW,231,11.0,17.0,8,0.00,,,0.02,,2013-04-25 19:52:00,
2013-04-25 16:02:00,64.0,6.0,30.37,WNW,283,5.0,10.0,10,0.00,,,0.02,,2013-04-25 20:02:00,
2013-04-25 16:11:00,64.0,6.0,30.37,WNW,283,5.0,10.0,10,0.00,,,0.02,,2013-04-25 20:11:00,
2013-04-25 16:22:00,63.0,1.0,30.37,West,274,5.0,15.0,8,0.00,,,0.02,,2013-04-25 20:22:00,
2013-04-25 16:32:00,64.0,2.0,30.37,NW,308,6.0,16.0,8,0.00,,,0.02,,2013-04-25 20:32:00,
2013-04-25 16:42:00,64.0,2.0,30.37,NW,308,6.0,16.0,8,0.00,,,0.02,,2013-04-25 20:42:00,
2013-04-25 16:52:00,62.0,3.0,30.36,East,79,9.0,23.0,9,0.00,,,0.02,,2013-04-25 20:52:00,
2013-04-25 17:01:00,62.0,0.0,30.35,North,349,5.0,17.0,8,0.00,,,0.02,,2013-04-25 21:01:00,
2013-04-25 17:11:00,62.0,0.0,30.35,North,349,5.0,17.0,8,0.00,,,0.02,,2013-04-25 21:11:00,
2013-04-25 17:22:00,64.0,10.0,30.35,SE,127,5.0,12.0,12,0.00,,,0.02,,2013-04-25 21:22:00,
2013-04-25 17:33:00,63.0,8.0,30.35,WSW,248,6.0,15.0,11,0.00,,,0.02,,2013-04-25 21:33:00,
2013-04-25 17:42:00,63.0,8.0,30.35,WSW,248,6.0,15.0,11,0.00,,,0.02,,2013-04-25 21:42:00,
2013-04-25 17:52:00,63.0,11.0,30.36,WSW,244,4.0,13.0,13,0.00,,,0.02,,2013-04-25 21:52:00,
2013-04-25 18:03:00,63.0,3.0,30.36,WSW,256,10.0,14.0,9,0.00,,,0.02,,2013-04-25 22:03:00,
2013-04-25 18:12:00,63.0,3.0,30.36,WSW,256,10.0,14.0,9,0.00,,,0.02,,2013-04-25 22:12:00,
2013-04-25 18:22:00,62.0,9.0,30.36,WSW,248,8.0,15.0,12,0.00,,,0.02,,2013-04-25 22:22:00,
2013-04-25 18:33:00,61.0,6.0,30.37,NW,325,6.0,11.0,11,0.00,,,0.02,,2013-04-25 22:33:00,
2013-04-25 18:42:00,61.0,6.0,30.37,NW,325,6.0,11.0,11,0.00,,,0.02,,2013-04-25 22:42:00,
2013-04-25 18:52:00,62.0,11.0,30.37,WSW,243,5.0,10.0,13,0.00,,,0.01,,2013-04-25 22:52:00,
2013-04-25 19:02:00,61.0,8.0,30.37,NW,315,2.0,8.0,12,0.00,,,0.01,,2013-04-25 23:02:00,
2013-04-25 19:12:00,61.0,8.0,30.37,NW,315,2.0,8.0,12,0.00,,,0.01,,2013-04-25 23:12:00,
2013-04-25 19:22:00,61.0,8.0,30.37,NW,305,3.0,8.0,12,0.00,,,0.01,,2013-04-25 23:22:00,
2013-04-25 19:32:00,60.0,9.0,30.37,WNW,293,4.0,9.0,13,0.00,,,0.01,,2013-04-25 23:32:00,
2013-04-25 19:42:00,60.0,9.0,30.37,WNW,293,4.0,9.0,13,0.00,,,0.01,,2013-04-25 23:42:00,
2013-04-25 19:52:00,60.0,12.0,30.37,West,278,3.0,6.0,15,0.00,,,0.01,,2013-04-25 23:52:00,
2013-04-25 20:01:00,59.0,11.0,30.38,NW,312,3.0,6.0,15,0.00,,,0.01,,2013-04-26 00:01:00,
2013-04-25 20:11:00,59.0,11.0,30.38,NW,312,3.0,6.0,15,0.00,,,0.01,,2013-04-26 00:11:00,
2013-04-25 20:21:00,57.0,11.0,30.38,WNW,298,2.0,8.0,16,0.00,,,0.01,,2013-04-26 00:21:00,
2013-04-25 20:32:00,55.0,12.0,30.38,WNW,294,1.0,5.0,18,0.00,,,0.01,,2013-04-26 00:32:00,
2013-04-25 20:42:00,55.0,12.0,30.38,WNW,294,1.0,5.0,18,0.00,,,0.01,,2013-04-26 00:42:00,
2013-04-25 20:51:00,53.0,12.0,30.38,NW,314,2.0,6.0,19,0.00,,,0.01,,2013-04-26 00:51:00,
2013-04-25 21:01:00,52.0,15.0,30.38,NNE,24,3.0,7.0,23,0.00,,,0.01,,2013-04-26 01:01:00,
2013-04-25 21:11:00,52.0,15.0,30.38,NNE,24,3.0,7.0,23,0.00,,,0.01,,2013-04-26 01:11:00,
2013-04-25 21:21:00,52.0,16.0,30.38,North,8,4.0,7.0,24,0.00,,,0.01,,2013-04-26 01:21:00,
2013-04-25 21:32:00,51.0,18.0,30.39,NNE,24,4.0,7.0,27,0.00,,,0.01,,2013-04-26 01:32:00,
2013-04-25 21:42:00,51.0,18.0,30.39,NNE,24,4.0,7.0,27,0.00,,,0.01,,2013-04-26 01:42:00,
2013-04-25 21:52:00,50.0,18.0,30.39,NE,46,5.0,9.0,28,0.00,,,0.01,,2013-04-26 01:52:00,
2013-04-25 22:02:00,50.0,20.0,30.40,NNE,30,7.0,11.0,30,0.00,,,0.01,,2013-04-26 02:02:00,
2013-04-25 22:12:00,50.0,20.0,30.40,NNE,30,7.0,11.0,30,0.00,,,0.01,,2013-04-26 02:12:00,
2013-04-25 22:21:00,49.0,20.0,30.40,NE,47,3.0,8.0,32,0.00,,,0.01,,2013-04-26 02:21:00,
2013-04-25 22:32:00,49.0,20.0,30.40,NNE,30,4.0,8.0,31,0.00,,,0.01,,2013-04-26 02:32:00,
2013-04-25 22:42:00,49.0,20.0,30.40,NNE,30,4.0,8.0,31,0.00,,,0.01,,2013-04-26 02:42:00,
2013-04-25 22:51:00,49.0,20.0,30.41,NNE,27,3.0,4.0,31,0.00,,,0.01,,2013-04-26 02:51:00,
2013-04-25 23:01:00,48.0,20.0,30.42,NNE,16,4.0,7.0,32,0.00,,,0.01,,2013-04-26 03:01:00,
2013-04-25 23:11:00,48.0,20.0,30.42,NNE,16,4.0,7.0,32,0.00,,,0.01,,2013-04-26 03:11:00,
2013-04-25 23:22:00,47.0,21.0,30.42,NNE,30,6.0,8.0,36,0.00,,,0.01,,2013-04-26 03:22:00,
2013-04-25 23:33:00,47.0,23.0,30.42,NNE,33,5.0,9.0,39,0.00,,,0.01,,2013-04-26 03:33:00,
2013-04-25 23:43:00,47.0,23.0,30.42,NNE,33,5.0,9.0,39,0.00,,,0.01,,2013-04-26 03:43:00,
2013-04-25 23:53:00,46.0,24.0,30.42,NE,37,3.0,6.0,41,0.00,,,0.01,,2013-04-26 03:53:00,